createdAt,value
2023-05-18T00:01:41.096Z,69.80
2023-05-18T00:04:09.986Z,70.50
2023-05-18T00:06:38.290Z,70.60
2023-05-18T00:09:06.470Z,70.30
2023-05-18T00:11:39.638Z,70.30
2023-05-18T00:14:08.232Z,70.30
2023-05-18T00:16:36.589Z,70.30
2023-05-18T00:19:05.147Z,70.50
2023-05-18T00:21:33.660Z,70.80
2023-05-18T00:24:01.959Z,71.80
2023-05-18T00:26:32.556Z,71.40
2023-05-18T00:29:02.169Z,71.50
2023-05-18T00:31:30.454Z,71.60
2023-05-18T00:33:58.668Z,71.70
2023-05-18T00:36:26.836Z,71.60
2023-05-18T00:38:55.027Z,71.60
2023-05-18T00:41:23.235Z,71.80
2023-05-18T00:43:51.402Z,71.70
2023-05-18T00:46:21.281Z,71.70
2023-05-18T00:48:49.943Z,71.80
2023-05-18T00:51:18.183Z,71.90
2023-05-18T00:53:46.758Z,71.90
2023-05-18T00:56:16.351Z,72.20
2023-05-18T00:58:44.572Z,72.30
2023-05-18T01:01:12.899Z,72.50
2023-05-18T01:03:43.241Z,72.50
2023-05-18T01:06:12.982Z,72.50
2023-05-18T01:08:42.139Z,72.60
2023-05-18T01:11:16.016Z,72.50
2023-05-18T01:13:48.283Z,72.80
2023-05-18T01:16:21.738Z,72.90
2023-05-18T01:18:58.915Z,73.10
2023-05-18T01:21:36.593Z,73.20
2023-05-18T01:24:17.561Z,73.10
2023-05-18T01:26:47.931Z,73.10
2023-05-18T01:29:16.753Z,73.00
2023-05-18T01:31:45.146Z,73.40
2023-05-18T01:34:13.469Z,73.50
2023-05-18T01:36:41.656Z,73.40
2023-05-18T01:39:10.425Z,73.10
2023-05-18T01:41:40.559Z,73.50
2023-05-18T01:44:15.129Z,73.60
2023-05-18T01:46:48.244Z,73.60
2023-05-18T01:49:18.582Z,73.60
2023-05-18T01:51:47.855Z,73.70
2023-05-18T01:54:17.396Z,73.60
2023-05-18T01:56:46.184Z,73.70
2023-05-18T01:59:15.986Z,73.90
2023-05-18T02:01:45.217Z,74.00
2023-05-18T02:04:13.648Z,74.00
2023-05-18T02:06:41.830Z,73.80
2023-05-18T02:09:10.058Z,74.30
2023-05-18T02:11:38.256Z,74.20
2023-05-18T02:14:06.424Z,74.30
2023-05-18T02:16:36.022Z,74.60
2023-05-18T02:19:04.682Z,74.40
2023-05-18T02:21:34.702Z,74.50
2023-05-18T02:24:02.916Z,74.50
2023-05-18T02:26:31.484Z,74.50
2023-05-18T02:28:59.713Z,74.50
2023-05-18T02:31:29.581Z,74.60
2023-05-18T02:33:59.240Z,74.50
2023-05-18T02:36:27.410Z,74.40
2023-05-18T02:38:55.967Z,74.50
2023-05-18T02:41:24.131Z,74.40
2023-05-18T02:43:52.255Z,74.50
2023-05-18T02:46:20.720Z,74.70
2023-05-18T02:48:48.960Z,74.60
2023-05-18T02:51:19.186Z,74.70
2023-05-18T02:53:47.433Z,74.70
2023-05-18T02:56:15.720Z,74.80
2023-05-18T02:58:44.509Z,74.80
2023-05-18T03:01:13.454Z,74.70
2023-05-18T03:03:43.337Z,74.90
2023-05-18T03:06:11.587Z,75.00
2023-05-18T03:08:41.127Z,75.00
2023-05-18T03:11:09.315Z,75.10
2023-05-18T03:13:37.511Z,75.10
2023-05-18T03:16:06.439Z,75.20
2023-05-18T03:18:34.601Z,75.20
2023-05-18T03:21:03.442Z,75.30
2023-05-18T03:23:31.630Z,75.40
2023-05-18T03:26:02.660Z,75.50
2023-05-18T03:28:30.976Z,75.60
2023-05-18T03:30:59.197Z,75.80
2023-05-18T03:33:28.203Z,75.80
2023-05-18T03:35:56.550Z,76.00
2023-05-18T03:38:24.716Z,76.00
2023-05-18T03:40:52.914Z,76.10
2023-05-18T03:43:25.303Z,76.10
2023-05-18T03:45:53.626Z,76.00
2023-05-18T03:48:22.315Z,76.00
2023-05-18T03:50:50.546Z,76.00
2023-05-18T03:53:19.380Z,76.00
2023-05-18T03:55:49.168Z,75.90
2023-05-18T03:58:17.382Z,75.90
2023-05-18T04:00:47.403Z,75.70
2023-05-18T04:03:15.715Z,75.60
2023-05-18T04:05:44.562Z,75.70
2023-05-18T04:08:14.864Z,75.60
2023-05-18T04:10:43.440Z,75.60
2023-05-18T04:13:11.938Z,75.60
2023-05-18T04:15:40.138Z,75.50
2023-05-18T04:18:10.397Z,75.50
2023-05-18T04:20:39.071Z,75.60
2023-05-18T04:23:09.664Z,75.70
2023-05-18T04:25:39.498Z,75.80
2023-05-18T04:28:08.309Z,75.20
2023-05-18T04:30:37.602Z,75.20
2023-05-18T04:33:06.639Z,75.30
2023-05-18T04:35:36.475Z,74.90
2023-05-18T04:38:05.233Z,75.00
2023-05-18T04:40:34.542Z,75.00
2023-05-18T04:43:04.006Z,74.70
2023-05-18T04:45:34.236Z,74.90
2023-05-18T04:48:02.928Z,74.60
2023-05-18T04:50:31.157Z,74.80
2023-05-18T04:53:02.637Z,74.40
2023-05-18T04:55:31.306Z,75.00
2023-05-18T04:58:01.280Z,73.50
2023-05-18T05:00:30.201Z,73.00
2023-05-18T05:02:59.175Z,71.90
2023-05-18T05:05:27.822Z,71.50
2023-05-18T05:07:57.566Z,69.80
2023-05-18T05:10:28.077Z,66.30
2023-05-18T05:12:56.643Z,63.50
2023-05-18T05:15:25.070Z,61.80
2023-05-18T05:17:53.804Z,62.70
2023-05-18T05:20:22.138Z,61.30
2023-05-18T05:22:50.751Z,60.20
2023-05-18T05:25:19.012Z,60.10
2023-05-18T05:27:48.571Z,58.80
2023-05-18T05:30:16.909Z,56.90
2023-05-18T05:32:45.125Z,55.90
2023-05-18T05:35:13.380Z,55.00
2023-05-18T05:37:41.800Z,54.60
2023-05-18T05:40:10.649Z,53.40
2023-05-18T05:42:38.816Z,52.70
2023-05-18T05:45:09.915Z,52.10
2023-05-18T05:47:38.149Z,51.00
2023-05-18T05:50:06.729Z,51.00
2023-05-18T05:52:34.951Z,51.00
2023-05-18T05:55:04.077Z,51.30
2023-05-18T05:57:32.226Z,52.10
2023-05-18T06:00:01.685Z,52.70
2023-05-18T06:02:31.540Z,52.90
2023-05-18T06:04:59.833Z,53.70
2023-05-18T06:07:28.257Z,54.20
2023-05-18T06:09:56.467Z,53.10
2023-05-18T06:12:24.733Z,52.50
2023-05-18T06:14:57.271Z,51.50
2023-05-18T06:17:25.552Z,52.40
2023-05-18T06:19:55.202Z,49.90
2023-05-18T06:22:24.534Z,49.80
2023-05-18T06:24:52.885Z,49.90
2023-05-18T06:27:21.035Z,47.60
2023-05-18T06:29:49.197Z,46.90
2023-05-18T06:32:17.606Z,47.10
2023-05-18T06:34:47.272Z,46.80
2023-05-18T06:37:17.344Z,45.50
2023-05-18T06:39:45.637Z,45.90
2023-05-18T06:42:13.799Z,45.30
2023-05-18T06:44:41.966Z,45.00
2023-05-18T06:47:10.165Z,43.30
2023-05-18T06:49:38.650Z,43.20
2023-05-18T06:52:08.725Z,43.20
2023-05-18T06:54:38.338Z,40.10
2023-05-18T06:57:06.848Z,41.30
2023-05-18T06:59:35.870Z,39.60
2023-05-18T07:02:04.197Z,40.00
2023-05-18T07:04:32.910Z,40.60
2023-05-18T07:07:01.396Z,38.10
2023-05-18T07:09:29.698Z,39.70
2023-05-18T07:11:59.196Z,39.20
2023-05-18T07:14:27.488Z,38.10
2023-05-18T07:16:56.166Z,39.00
2023-05-18T07:19:24.462Z,38.20
2023-05-18T07:21:52.753Z,36.30
2023-05-18T07:24:20.982Z,38.20
2023-05-18T07:26:49.172Z,36.10
2023-05-18T07:29:18.747Z,35.90
2023-05-18T07:31:47.383Z,35.20
2023-05-18T07:34:15.701Z,37.90
2023-05-18T07:36:43.910Z,35.50
2023-05-18T07:39:19.505Z,35.30
2023-05-18T07:41:48.477Z,35.00
2023-05-18T07:44:18.098Z,35.40
2023-05-18T07:46:46.377Z,35.30
2023-05-18T07:49:14.618Z,33.80
2023-05-18T07:51:43.102Z,29.70
2023-05-18T07:54:11.263Z,29.90
2023-05-18T07:56:39.454Z,30.50
2023-05-18T07:59:08.044Z,30.70
2023-05-18T08:01:38.386Z,31.50
2023-05-18T08:04:07.428Z,32.70
2023-05-18T08:06:35.625Z,34.10
2023-05-18T08:09:04.180Z,34.00
2023-05-18T08:11:32.494Z,32.80
2023-05-18T08:14:00.839Z,31.20
2023-05-18T08:16:29.029Z,33.30
2023-05-18T08:18:58.648Z,32.00
2023-05-18T08:21:26.865Z,30.10
2023-05-18T08:23:55.028Z,29.70
2023-05-18T08:26:24.477Z,30.80
2023-05-18T08:28:52.656Z,31.50
2023-05-18T08:31:21.148Z,29.60
2023-05-18T08:33:49.906Z,30.00
2023-05-18T08:36:19.464Z,29.90
2023-05-18T08:38:47.676Z,29.50
2023-05-18T08:41:21.015Z,30.00
2023-05-18T08:43:50.274Z,30.40
2023-05-18T08:46:21.310Z,29.70
2023-05-18T08:48:50.467Z,31.10
2023-05-18T08:51:21.120Z,31.90
2023-05-18T08:53:52.646Z,31.30
2023-05-18T08:56:23.276Z,30.60
2023-05-18T08:58:53.400Z,30.60
2023-05-18T09:01:22.883Z,30.20
2023-05-18T09:03:51.576Z,31.20
2023-05-18T09:06:22.285Z,32.50
2023-05-18T09:08:53.646Z,33.40
2023-05-18T09:11:23.036Z,31.70
2023-05-18T09:13:51.628Z,32.60
2023-05-18T09:16:19.879Z,29.80
2023-05-18T09:18:48.098Z,30.00
2023-05-18T09:21:16.446Z,28.40
2023-05-18T09:23:46.339Z,27.80
2023-05-18T09:26:14.597Z,28.00
2023-05-18T09:28:43.254Z,27.70
2023-05-18T09:31:13.389Z,29.20
2023-05-18T09:33:41.843Z,29.10
2023-05-18T09:36:10.573Z,29.10
2023-05-18T09:38:39.258Z,29.20
2023-05-18T09:41:12.607Z,28.00
2023-05-18T09:43:41.052Z,29.60
2023-05-18T09:46:09.494Z,28.90
2023-05-18T09:48:38.015Z,30.70
2023-05-18T09:51:07.118Z,30.70
2023-05-18T09:53:36.405Z,29.20
2023-05-18T09:56:05.420Z,26.80
2023-05-18T09:58:35.147Z,27.30
2023-05-18T10:01:03.468Z,28.40
2023-05-18T10:03:33.492Z,28.20
2023-05-18T10:06:04.059Z,29.50
2023-05-18T10:08:32.267Z,28.40
2023-05-18T10:11:00.877Z,29.60
2023-05-18T10:13:31.514Z,28.90
2023-05-18T10:16:01.908Z,30.80
2023-05-18T10:18:31.394Z,31.20
2023-05-18T10:21:00.538Z,30.00
2023-05-18T10:23:31.649Z,29.40
2023-05-18T10:26:00.025Z,28.80
2023-05-18T10:28:29.006Z,27.50
2023-05-18T10:30:57.934Z,27.80
2023-05-18T10:33:29.861Z,26.70
2023-05-18T10:35:58.714Z,26.60
2023-05-18T10:38:27.652Z,27.70
2023-05-18T10:40:56.684Z,27.80
2023-05-18T10:43:27.468Z,28.20
2023-05-18T10:45:57.168Z,28.30
2023-05-18T10:48:27.483Z,28.30
2023-05-18T10:50:56.648Z,28.70
2023-05-18T10:53:26.688Z,28.80
2023-05-18T10:55:55.667Z,28.70
2023-05-18T10:58:25.957Z,28.70
2023-05-18T11:00:56.174Z,28.80
2023-05-18T11:03:25.797Z,28.70
2023-05-18T11:06:05.175Z,29.20
2023-05-18T11:08:33.629Z,28.80
2023-05-18T11:11:03.367Z,27.60
2023-05-18T11:13:32.494Z,27.70
2023-05-18T11:16:05.217Z,27.80
2023-05-18T11:18:37.762Z,28.10
2023-05-18T11:21:19.512Z,27.80
2023-05-18T11:24:02.575Z,27.60
2023-05-18T11:26:31.222Z,28.80
2023-05-18T11:28:59.819Z,28.20
2023-05-18T11:31:44.213Z,28.30
2023-05-18T11:34:31.727Z,27.50
2023-05-18T11:37:01.486Z,28.30
2023-05-18T11:39:29.702Z,27.90
2023-05-18T11:42:01.900Z,27.40
2023-05-18T11:44:30.304Z,28.50
2023-05-18T11:47:02.108Z,27.40
2023-05-18T11:49:32.037Z,26.60
2023-05-18T11:52:05.915Z,26.90
2023-05-18T11:54:40.473Z,26.30
2023-05-18T11:57:09.886Z,26.80
2023-05-18T11:59:39.597Z,27.10
2023-05-18T12:02:10.598Z,27.00
2023-05-18T12:04:43.859Z,28.60
2023-05-18T12:07:13.642Z,26.90
2023-05-18T12:09:43.077Z,27.10
2023-05-18T12:12:12.636Z,27.80
2023-05-18T12:14:45.577Z,27.40
2023-05-18T12:17:14.047Z,27.90
2023-05-18T12:19:45.421Z,26.20
2023-05-18T12:22:14.981Z,26.60
2023-05-18T12:24:43.597Z,25.50
2023-05-18T12:27:12.462Z,25.60
2023-05-18T12:29:41.519Z,27.40
2023-05-18T12:32:10.585Z,26.70
2023-05-18T12:34:39.110Z,26.30
2023-05-18T12:37:07.539Z,26.90
2023-05-18T12:39:37.566Z,27.40
2023-05-18T12:42:12.359Z,27.40
2023-05-18T12:44:42.109Z,27.70
2023-05-18T12:47:11.244Z,27.60
2023-05-18T12:49:40.271Z,26.80
2023-05-18T12:52:12.509Z,27.30
2023-05-18T12:54:55.585Z,27.30
2023-05-18T12:57:26.956Z,27.20
2023-05-18T12:59:55.517Z,27.10
2023-05-18T13:02:33.588Z,27.30
2023-05-18T13:05:08.816Z,25.50
2023-05-18T13:07:37.360Z,26.70
2023-05-18T13:10:11.458Z,25.90
2023-05-18T13:12:40.812Z,25.10
2023-05-18T13:15:10.147Z,26.60
2023-05-18T13:17:40.304Z,25.70
2023-05-18T13:20:13.587Z,25.00
2023-05-18T13:22:41.896Z,25.70
2023-05-18T13:25:11.792Z,24.90
2023-05-18T13:27:40.011Z,24.80
2023-05-18T13:30:08.933Z,25.90
2023-05-18T13:32:37.265Z,25.30
2023-05-18T13:35:06.419Z,26.70
2023-05-18T13:37:34.652Z,27.80
2023-05-18T13:40:02.988Z,27.90
2023-05-18T13:42:32.774Z,27.30
2023-05-18T13:45:00.922Z,27.90
2023-05-18T13:47:29.220Z,26.80
2023-05-18T13:49:57.449Z,26.20
2023-05-18T13:52:26.034Z,25.90
2023-05-18T13:54:54.232Z,26.60
2023-05-18T13:57:23.858Z,27.20
2023-05-18T13:59:53.777Z,26.90
2023-05-18T14:02:22.116Z,26.00
2023-05-18T14:04:50.317Z,25.90
2023-05-18T14:07:18.486Z,26.00
2023-05-18T14:09:46.738Z,27.40
2023-05-18T14:12:14.904Z,27.50
2023-05-18T14:14:43.414Z,27.30
2023-05-18T14:17:13.598Z,26.90
2023-05-18T14:19:41.921Z,26.70
2023-05-18T14:22:10.082Z,26.90
2023-05-18T14:24:38.301Z,25.70
2023-05-18T14:27:06.638Z,25.80
2023-05-18T14:29:35.980Z,26.30
2023-05-18T14:32:04.517Z,27.20
2023-05-18T14:34:34.012Z,27.50
2023-05-18T14:37:02.223Z,26.80
2023-05-18T14:39:30.494Z,27.10
2023-05-18T14:41:58.776Z,27.10
2023-05-18T14:44:26.956Z,27.50
2023-05-18T14:46:55.148Z,27.10
2023-05-18T14:49:23.384Z,26.90
2023-05-18T14:51:52.918Z,26.20
2023-05-18T14:54:22.175Z,25.70
2023-05-18T14:56:50.348Z,25.80
2023-05-18T14:59:18.576Z,24.20
2023-05-18T15:01:46.786Z,24.50
2023-05-18T15:04:15.401Z,24.00
2023-05-18T15:06:43.598Z,23.50
2023-05-18T15:09:14.934Z,25.00
2023-05-18T15:11:43.114Z,24.10
2023-05-18T15:14:11.364Z,25.10
2023-05-18T15:16:39.894Z,25.10
2023-05-18T15:19:08.261Z,25.50
2023-05-18T15:21:36.498Z,26.00
2023-05-18T15:24:04.808Z,26.50
2023-05-18T15:26:34.730Z,26.90
2023-05-18T15:29:03.211Z,27.10
2023-05-18T15:31:32.870Z,26.90
2023-05-18T15:34:01.153Z,27.30
2023-05-18T15:36:29.338Z,28.30
2023-05-18T15:38:57.490Z,27.90
2023-05-18T15:41:26.214Z,28.50
2023-05-18T15:43:55.821Z,28.80
2023-05-18T15:46:24.162Z,28.70
2023-05-18T15:48:52.378Z,28.50
2023-05-18T15:51:20.555Z,28.50
2023-05-18T15:53:48.692Z,28.70
2023-05-18T15:56:18.647Z,28.30
2023-05-18T15:58:47.060Z,27.90
2023-05-18T16:01:16.676Z,28.60
2023-05-18T16:03:45.046Z,29.20
2023-05-18T16:06:13.343Z,29.20
2023-05-18T16:08:41.599Z,29.60
2023-05-18T16:11:09.836Z,30.00
2023-05-18T16:13:37.961Z,30.80
2023-05-18T16:16:08.757Z,31.60
2023-05-18T16:18:38.339Z,32.00
2023-05-18T16:21:06.808Z,31.10
2023-05-18T16:23:34.953Z,30.10
2023-05-18T16:26:05.315Z,30.40
2023-05-18T16:28:33.611Z,31.70
2023-05-18T16:31:03.574Z,31.80
2023-05-18T16:33:31.780Z,30.90
2023-05-18T16:36:01.679Z,31.70
2023-05-18T16:38:31.220Z,31.60
2023-05-18T16:40:59.924Z,30.40
2023-05-18T16:43:28.170Z,30.10
2023-05-18T16:45:56.506Z,31.50
2023-05-18T16:48:24.770Z,31.80
2023-05-18T16:50:53.096Z,31.20
2023-05-18T16:53:22.627Z,31.40
2023-05-18T16:55:50.887Z,30.80
2023-05-18T16:58:19.247Z,30.40
2023-05-18T17:00:47.432Z,30.90
2023-05-18T17:03:17.316Z,31.40
2023-05-18T17:05:45.682Z,31.90
2023-05-18T17:08:14.047Z,32.80
2023-05-18T17:10:43.628Z,33.50
2023-05-18T17:13:11.828Z,33.60
2023-05-18T17:15:40.056Z,33.80
2023-05-18T17:18:08.328Z,32.90
2023-05-18T17:20:36.561Z,33.30
2023-05-18T17:23:04.701Z,33.70
2023-05-18T17:25:33.046Z,34.10
2023-05-18T17:28:02.558Z,34.20
2023-05-18T17:30:31.061Z,35.00
2023-05-18T17:32:59.510Z,35.60
2023-05-18T17:35:27.793Z,36.10
2023-05-18T17:37:56.032Z,36.90
2023-05-18T17:40:24.314Z,37.20
2023-05-18T17:42:52.520Z,37.30
2023-05-18T17:45:22.055Z,38.00
2023-05-18T17:47:50.214Z,38.10
2023-05-18T17:50:18.430Z,38.40
2023-05-18T17:52:46.712Z,38.60
2023-05-18T17:55:15.122Z,39.10
2023-05-18T17:57:45.269Z,39.40
2023-05-18T18:00:14.334Z,39.90
2023-05-18T18:02:44.068Z,40.20
2023-05-18T18:05:12.983Z,40.00
2023-05-18T18:07:41.212Z,39.90
2023-05-18T18:10:09.898Z,40.20
2023-05-18T18:12:38.119Z,40.30
2023-05-18T18:15:06.783Z,40.60
2023-05-18T18:17:35.013Z,40.60
2023-05-18T18:20:05.667Z,41.00
2023-05-18T18:22:35.861Z,41.50
2023-05-18T18:25:04.371Z,41.60
2023-05-18T18:27:32.547Z,42.10
2023-05-18T18:30:00.791Z,42.20
2023-05-18T18:32:29.008Z,41.90
2023-05-18T18:34:57.225Z,42.10
2023-05-18T18:37:27.605Z,42.50
2023-05-18T18:39:55.837Z,43.60
2023-05-18T18:42:23.978Z,43.70
2023-05-18T18:44:56.421Z,44.80
2023-05-18T18:47:24.766Z,45.10
2023-05-18T18:49:52.938Z,46.00
2023-05-18T18:52:21.236Z,47.20
2023-05-18T18:54:51.113Z,47.70
2023-05-18T18:57:19.290Z,48.10
2023-05-18T18:59:47.484Z,48.50
2023-05-18T19:02:16.250Z,49.20
2023-05-18T19:04:44.597Z,49.80
2023-05-18T19:07:12.808Z,50.40
2023-05-18T19:09:41.047Z,50.70
2023-05-18T19:12:10.994Z,50.80
2023-05-18T19:14:39.186Z,51.20
2023-05-18T19:17:07.392Z,51.70
2023-05-18T19:19:37.197Z,52.00
2023-05-18T19:22:05.692Z,52.30
2023-05-18T19:24:33.835Z,52.30
2023-05-18T19:27:02.055Z,52.70
2023-05-18T19:29:32.290Z,53.40
2023-05-18T19:32:00.711Z,53.60
2023-05-18T19:34:29.020Z,53.80
2023-05-18T19:36:57.837Z,54.30
2023-05-18T19:39:26.032Z,55.10
2023-05-18T19:41:55.166Z,55.50
2023-05-18T19:44:23.423Z,55.70
2023-05-18T19:46:53.000Z,56.10
2023-05-18T19:49:21.173Z,56.40
2023-05-18T19:51:49.449Z,56.60
2023-05-18T19:54:17.640Z,57.10
2023-05-18T19:56:45.818Z,57.70
2023-05-18T19:59:14.346Z,57.90
2023-05-18T20:01:42.629Z,57.80
2023-05-18T20:04:12.242Z,57.70
2023-05-18T20:06:40.570Z,58.00
2023-05-18T20:09:10.058Z,58.10
2023-05-18T20:11:38.793Z,58.20
2023-05-18T20:14:08.457Z,58.00
2023-05-18T20:16:39.624Z,58.00
2023-05-18T20:19:08.346Z,58.80
2023-05-18T20:21:37.963Z,59.40
2023-05-18T20:24:06.598Z,59.90
2023-05-18T20:26:34.773Z,60.40
2023-05-18T20:29:02.944Z,60.70
2023-05-18T20:31:31.181Z,60.90
2023-05-18T20:33:59.413Z,61.00
2023-05-18T20:36:27.608Z,61.30
2023-05-18T20:38:57.293Z,61.70
2023-05-18T20:41:25.851Z,61.50
2023-05-18T20:43:54.259Z,61.30
2023-05-18T20:46:24.838Z,61.10
2023-05-18T20:48:57.449Z,61.10
2023-05-18T20:51:25.917Z,61.30
2023-05-18T20:53:54.092Z,61.50
2023-05-18T20:56:23.808Z,60.90
2023-05-18T20:58:51.999Z,60.90
2023-05-18T21:01:20.917Z,61.30
2023-05-18T21:03:49.231Z,61.40
2023-05-18T21:06:17.510Z,61.70
2023-05-18T21:08:45.717Z,61.50
2023-05-18T21:11:13.936Z,61.80
2023-05-18T21:13:43.498Z,62.20
2023-05-18T21:16:11.939Z,62.60
2023-05-18T21:18:40.565Z,62.60
2023-05-18T21:21:08.856Z,62.20
2023-05-18T21:23:37.050Z,62.50
2023-05-18T21:26:05.401Z,62.60
2023-05-18T21:28:33.640Z,63.10
2023-05-18T21:31:04.069Z,63.50
2023-05-18T21:33:32.317Z,63.40
2023-05-18T21:36:01.563Z,63.60
2023-05-18T21:38:29.753Z,63.70
2023-05-18T21:40:58.503Z,64.00
2023-05-18T21:43:27.157Z,64.40
2023-05-18T21:45:55.359Z,64.50
2023-05-18T21:48:24.894Z,64.40
2023-05-18T21:50:53.390Z,64.40
2023-05-18T21:53:21.676Z,64.40
2023-05-18T21:55:49.937Z,64.20
2023-05-18T21:58:18.205Z,64.30
2023-05-18T22:00:46.497Z,64.10
2023-05-18T22:03:14.634Z,64.30
2023-05-18T22:05:44.807Z,64.20
2023-05-18T22:08:13.116Z,64.20
2023-05-18T22:10:41.578Z,64.20
2023-05-18T22:13:09.881Z,64.10
2023-05-18T22:15:40.123Z,63.90
2023-05-18T22:18:08.504Z,64.20
2023-05-18T22:20:36.813Z,63.80
2023-05-18T22:23:06.381Z,63.80
2023-05-18T22:25:34.651Z,63.50
2023-05-18T22:28:03.196Z,61.00
2023-05-18T22:30:33.578Z,60.10
2023-05-18T22:33:02.052Z,59.10
2023-05-18T22:35:30.449Z,58.80
2023-05-18T22:37:58.632Z,58.70
2023-05-18T22:40:28.283Z,58.30
2023-05-18T22:42:57.256Z,58.10
2023-05-18T22:45:25.631Z,57.70
2023-05-18T22:47:54.005Z,57.60
2023-05-18T22:50:22.271Z,57.80
2023-05-18T22:52:50.473Z,58.10
2023-05-18T22:55:18.789Z,58.10
2023-05-18T22:57:48.329Z,58.20
2023-05-18T23:00:16.637Z,59.50
2023-05-18T23:02:45.137Z,59.60
2023-05-18T23:05:13.503Z,60.40
2023-05-18T23:07:41.853Z,60.60
2023-05-18T23:10:11.224Z,60.80
2023-05-18T23:12:40.223Z,61.20
2023-05-18T23:15:10.772Z,61.90
2023-05-18T23:17:39.858Z,62.40
2023-05-18T23:20:10.435Z,63.30
2023-05-18T23:22:38.614Z,63.70
2023-05-18T23:25:08.665Z,64.30
2023-05-18T23:27:36.956Z,64.60
2023-05-18T23:30:05.437Z,65.30
2023-05-18T23:32:35.880Z,65.50
2023-05-18T23:35:04.700Z,65.90
2023-05-18T23:37:33.334Z,66.30
2023-05-18T23:40:02.185Z,66.70
2023-05-18T23:42:30.660Z,67.00
2023-05-18T23:44:59.166Z,67.00
2023-05-18T23:47:27.603Z,67.40
2023-05-18T23:49:57.477Z,67.70
2023-05-18T23:52:26.648Z,68.10
2023-05-18T23:54:55.877Z,69.30
2023-05-18T23:57:24.907Z,68.90
2023-05-18T23:59:53.411Z,69.00
